Terminal Aerodrome Forecast
Issued by NWS Charleston, WV

Current Version | Previous Version | Text Only | Print | Product List | Glossary Off
Versions: 1 2 3 4 5 6 7 8 9 10 11 12 13 14 15 16 17 18 19 20 21 22 23 24 25 26 27 28 29 30 31

000
FTUS41 KRLX 221721
TAFEKN
TAF
KEKN 221721Z 2218/2318 25010G18KT P6SM FEW035
     FM230000 28010G16KT P6SM BKN035
     FM230100 30009KT P6SM SCT030
     FM230300 35007KT P6SM SCT030
     FM230600 00000KT P6SM FEW030
     FM230700 00000KT P6SM SCT250=

USA.gov is the U.S. government's official web portal to all federal, state and local government web resources and services.